sensor_id;sensor_type;location;lat;lon;timestamp;P1;durP1;ratioP1;P2;durP2;ratioP2
13943;SDS011;7044;53.286;8.534;2023-12-20T00:02:04;7.20;;;1.70;;
13943;SDS011;7044;53.286;8.534;2023-12-20T00:04:30;4.50;;;1.13;;
13943;SDS011;7044;53.286;8.534;2023-12-20T00:06:57;10.17;;;1.87;;
13943;SDS011;7044;53.286;8.534;2023-12-20T00:09:24;4.23;;;1.17;;
13943;SDS011;7044;53.286;8.534;2023-12-20T00:11:51;9.63;;;1.80;;
13943;SDS011;7044;53.286;8.534;2023-12-20T00:14:19;13.23;;;2.13;;
13943;SDS011;7044;53.286;8.534;2023-12-20T00:16:46;9.50;;;1.80;;
13943;SDS011;7044;53.286;8.534;2023-12-20T00:19:13;8.07;;;1.60;;
13943;SDS011;7044;53.286;8.534;2023-12-20T00:21:40;2.27;;;1.10;;
13943;SDS011;7044;53.286;8.534;2023-12-20T00:24:07;5.73;;;1.30;;
13943;SDS011;7044;53.286;8.534;2023-12-20T00:26:34;6.73;;;1.80;;
13943;SDS011;7044;53.286;8.534;2023-12-20T00:29:01;9.20;;;1.90;;
13943;SDS011;7044;53.286;8.534;2023-12-20T00:31:29;11.23;;;1.60;;
13943;SDS011;7044;53.286;8.534;2023-12-20T00:33:56;4.40;;;1.03;;
13943;SDS011;7044;53.286;8.534;2023-12-20T00:36:23;6.73;;;1.43;;
13943;SDS011;7044;53.286;8.534;2023-12-20T00:38:49;13.37;;;2.40;;
13943;SDS011;7044;53.286;8.534;2023-12-20T00:41:17;7.40;;;1.17;;
13943;SDS011;7044;53.286;8.534;2023-12-20T00:43:43;7.33;;;1.27;;
13943;SDS011;7044;53.286;8.534;2023-12-20T00:46:10;6.97;;;1.97;;
13943;SDS011;7044;53.286;8.534;2023-12-20T00:48:38;6.60;;;1.83;;
13943;SDS011;7044;53.286;8.534;2023-12-20T00:51:07;7.77;;;1.70;;
13943;SDS011;7044;53.286;8.534;2023-12-20T00:53:34;11.70;;;1.87;;
13943;SDS011;7044;53.286;8.534;2023-12-20T00:56:01;12.03;;;2.07;;
13943;SDS011;7044;53.286;8.534;2023-12-20T00:58:28;4.93;;;1.60;;
13943;SDS011;7044;53.286;8.534;2023-12-20T01:00:55;13.27;;;1.77;;
13943;SDS011;7044;53.286;8.534;2023-12-20T01:03:23;6.43;;;1.23;;
13943;SDS011;7044;53.286;8.534;2023-12-20T01:05:51;6.03;;;1.23;;
13943;SDS011;7044;53.286;8.534;2023-12-20T01:08:18;5.03;;;1.23;;
13943;SDS011;7044;53.286;8.534;2023-12-20T01:10:45;4.87;;;1.67;;
13943;SDS011;7044;53.286;8.534;2023-12-20T01:13:12;11.47;;;1.60;;
13943;SDS011;7044;53.286;8.534;2023-12-20T01:15:38;10.37;;;1.50;;
13943;SDS011;7044;53.286;8.534;2023-12-20T01:18:05;14.07;;;2.20;;
13943;SDS011;7044;53.286;8.534;2023-12-20T01:20:32;6.17;;;1.47;;
13943;SDS011;7044;53.286;8.534;2023-12-20T01:23:00;4.03;;;1.20;;
13943;SDS011;7044;53.286;8.534;2023-12-20T01:25:27;6.93;;;1.07;;
13943;SDS011;7044;53.286;8.534;2023-12-20T01:27:54;4.70;;;1.57;;
13943;SDS011;7044;53.286;8.534;2023-12-20T01:30:21;10.50;;;1.80;;
13943;SDS011;7044;53.286;8.534;2023-12-20T01:32:49;3.10;;;1.20;;
13943;SDS011;7044;53.286;8.534;2023-12-20T01:35:16;11.50;;;2.07;;
13943;SDS011;7044;53.286;8.534;2023-12-20T01:37:43;7.57;;;1.10;;
13943;SDS011;7044;53.286;8.534;2023-12-20T01:40:11;10.00;;;1.73;;
13943;SDS011;7044;53.286;8.534;2023-12-20T01:42:38;10.07;;;1.30;;
13943;SDS011;7044;53.286;8.534;2023-12-20T01:45:05;16.70;;;2.23;;
13943;SDS011;7044;53.286;8.534;2023-12-20T01:47:32;10.20;;;1.50;;
13943;SDS011;7044;53.286;8.534;2023-12-20T01:50:00;7.47;;;1.93;;
13943;SDS011;7044;53.286;8.534;2023-12-20T01:52:28;8.40;;;1.20;;
13943;SDS011;7044;53.286;8.534;2023-12-20T01:54:56;8.97;;;1.77;;
13943;SDS011;7044;53.286;8.534;2023-12-20T01:57:29;7.03;;;1.57;;
13943;SDS011;7044;53.286;8.534;2023-12-20T01:59:56;5.30;;;1.20;;
13943;SDS011;7044;53.286;8.534;2023-12-20T02:02:23;4.87;;;0.93;;
13943;SDS011;7044;53.286;8.534;2023-12-20T02:04:52;9.97;;;1.00;;
13943;SDS011;7044;53.286;8.534;2023-12-20T02:07:19;4.30;;;1.23;;
13943;SDS011;7044;53.286;8.534;2023-12-20T02:09:47;7.60;;;1.07;;
13943;SDS011;7044;53.286;8.534;2023-12-20T02:12:13;8.93;;;1.70;;
13943;SDS011;7044;53.286;8.534;2023-12-20T02:14:42;10.57;;;1.93;;
13943;SDS011;7044;53.286;8.534;2023-12-20T02:17:09;8.10;;;1.73;;
13943;SDS011;7044;53.286;8.534;2023-12-20T02:19:36;6.03;;;1.40;;
13943;SDS011;7044;53.286;8.534;2023-12-20T02:22:07;10.63;;;1.80;;
13943;SDS011;7044;53.286;8.534;2023-12-20T02:24:35;6.40;;;1.30;;
13943;SDS011;7044;53.286;8.534;2023-12-20T02:27:02;7.27;;;1.67;;
13943;SDS011;7044;53.286;8.534;2023-12-20T02:29:31;14.40;;;1.50;;
13943;SDS011;7044;53.286;8.534;2023-12-20T02:31:58;6.43;;;2.03;;
13943;SDS011;7044;53.286;8.534;2023-12-20T02:34:25;8.30;;;1.40;;
13943;SDS011;7044;53.286;8.534;2023-12-20T02:36:52;9.03;;;1.20;;
13943;SDS011;7044;53.286;8.534;2023-12-20T02:39:22;3.03;;;1.07;;
13943;SDS011;7044;53.286;8.534;2023-12-20T02:41:49;6.23;;;1.63;;
13943;SDS011;7044;53.286;8.534;2023-12-20T02:44:16;4.07;;;1.47;;
13943;SDS011;7044;53.286;8.534;2023-12-20T02:46:43;6.83;;;1.63;;
13943;SDS011;7044;53.286;8.534;2023-12-20T02:49:10;14.63;;;1.83;;
13943;SDS011;7044;53.286;8.534;2023-12-20T02:51:37;9.40;;;1.43;;
13943;SDS011;7044;53.286;8.534;2023-12-20T02:54:04;10.90;;;1.87;;
13943;SDS011;7044;53.286;8.534;2023-12-20T02:56:32;8.93;;;1.40;;
13943;SDS011;7044;53.286;8.534;2023-12-20T02:58:59;13.07;;;1.67;;
13943;SDS011;7044;53.286;8.534;2023-12-20T03:01:26;7.23;;;1.80;;
13943;SDS011;7044;53.286;8.534;2023-12-20T03:03:53;5.17;;;1.33;;
13943;SDS011;7044;53.286;8.534;2023-12-20T03:06:19;4.97;;;1.30;;
13943;SDS011;7044;53.286;8.534;2023-12-20T03:08:47;7.27;;;1.67;;
13943;SDS011;7044;53.286;8.534;2023-12-20T03:11:13;4.00;;;1.33;;
13943;SDS011;7044;53.286;8.534;2023-12-20T03:13:42;5.60;;;1.50;;
13943;SDS011;7044;53.286;8.534;2023-12-20T03:16:08;6.97;;;1.43;;
13943;SDS011;7044;53.286;8.534;2023-12-20T03:18:35;4.97;;;1.27;;
13943;SDS011;7044;53.286;8.534;2023-12-20T03:21:02;8.87;;;1.37;;
13943;SDS011;7044;53.286;8.534;2023-12-20T03:23:29;7.57;;;1.60;;
13943;SDS011;7044;53.286;8.534;2023-12-20T03:25:57;4.13;;;0.97;;
13943;SDS011;7044;53.286;8.534;2023-12-20T03:28:24;16.07;;;2.07;;
13943;SDS011;7044;53.286;8.534;2023-12-20T03:30:52;6.00;;;2.13;;
13943;SDS011;7044;53.286;8.534;2023-12-20T03:33:19;9.87;;;1.53;;
13943;SDS011;7044;53.286;8.534;2023-12-20T03:35:46;8.33;;;1.67;;
13943;SDS011;7044;53.286;8.534;2023-12-20T03:38:13;7.37;;;1.57;;
13943;SDS011;7044;53.286;8.534;2023-12-20T03:40:40;12.30;;;1.90;;
13943;SDS011;7044;53.286;8.534;2023-12-20T03:43:07;5.63;;;1.57;;
13943;SDS011;7044;53.286;8.534;2023-12-20T03:45:34;8.13;;;1.97;;
13943;SDS011;7044;53.286;8.534;2023-12-20T03:48:02;14.63;;;1.87;;
13943;SDS011;7044;53.286;8.534;2023-12-20T03:50:29;5.07;;;1.53;;
13943;SDS011;7044;53.286;8.534;2023-12-20T03:52:56;9.43;;;2.00;;
13943;SDS011;7044;53.286;8.534;2023-12-20T03:55:23;5.60;;;1.87;;
13943;SDS011;7044;53.286;8.534;2023-12-20T03:57:50;11.03;;;2.07;;
13943;SDS011;7044;53.286;8.534;2023-12-20T04:00:17;10.00;;;1.70;;
13943;SDS011;7044;53.286;8.534;2023-12-20T04:02:44;12.20;;;1.63;;
13943;SDS011;7044;53.286;8.534;2023-12-20T04:05:12;10.90;;;2.30;;
13943;SDS011;7044;53.286;8.534;2023-12-20T04:07:39;9.97;;;2.00;;
13943;SDS011;7044;53.286;8.534;2023-12-20T04:10:06;14.10;;;2.00;;
13943;SDS011;7044;53.286;8.534;2023-12-20T04:12:34;5.97;;;1.30;;
13943;SDS011;7044;53.286;8.534;2023-12-20T04:15:01;13.13;;;2.40;;
13943;SDS011;7044;53.286;8.534;2023-12-20T04:17:33;9.00;;;1.83;;
13943;SDS011;7044;53.286;8.534;2023-12-20T04:20:00;5.93;;;1.87;;
13943;SDS011;7044;53.286;8.534;2023-12-20T04:22:29;9.37;;;1.90;;
13943;SDS011;7044;53.286;8.534;2023-12-20T04:24:56;16.83;;;1.80;;
13943;SDS011;7044;53.286;8.534;2023-12-20T04:27:23;6.13;;;1.70;;
13943;SDS011;7044;53.286;8.534;2023-12-20T04:29:50;8.40;;;1.40;;
13943;SDS011;7044;53.286;8.534;2023-12-20T04:32:16;11.97;;;2.00;;
13943;SDS011;7044;53.286;8.534;2023-12-20T04:34:43;6.97;;;1.40;;
13943;SDS011;7044;53.286;8.534;2023-12-20T04:37:10;3.47;;;1.13;;
13943;SDS011;7044;53.286;8.534;2023-12-20T04:39:38;14.90;;;2.10;;
13943;SDS011;7044;53.286;8.534;2023-12-20T04:42:06;8.60;;;1.67;;
13943;SDS011;7044;53.286;8.534;2023-12-20T04:44:33;5.60;;;1.50;;
13943;SDS011;7044;53.286;8.534;2023-12-20T04:47:00;12.87;;;1.63;;
13943;SDS011;7044;53.286;8.534;2023-12-20T04:49:27;6.53;;;1.73;;
13943;SDS011;7044;53.286;8.534;2023-12-20T04:51:54;15.93;;;2.63;;
13943;SDS011;7044;53.286;8.534;2023-12-20T04:54:21;8.80;;;1.67;;
13943;SDS011;7044;53.286;8.534;2023-12-20T04:56:49;9.10;;;1.60;;
13943;SDS011;7044;53.286;8.534;2023-12-20T04:59:16;11.10;;;1.43;;
13943;SDS011;7044;53.286;8.534;2023-12-20T05:01:43;10.40;;;2.50;;
13943;SDS011;7044;53.286;8.534;2023-12-20T05:04:10;6.57;;;1.57;;
13943;SDS011;7044;53.286;8.534;2023-12-20T05:06:37;13.17;;;1.67;;
13943;SDS011;7044;53.286;8.534;2023-12-20T05:09:03;7.50;;;1.90;;
13943;SDS011;7044;53.286;8.534;2023-12-20T05:11:30;14.27;;;2.10;;
13943;SDS011;7044;53.286;8.534;2023-12-20T05:13:58;9.87;;;2.47;;
13943;SDS011;7044;53.286;8.534;2023-12-20T05:16:25;10.73;;;1.90;;
13943;SDS011;7044;53.286;8.534;2023-12-20T05:18:52;13.17;;;1.90;;
13943;SDS011;7044;53.286;8.534;2023-12-20T05:21:19;15.23;;;2.30;;
13943;SDS011;7044;53.286;8.534;2023-12-20T05:23:46;8.37;;;1.97;;
13943;SDS011;7044;53.286;8.534;2023-12-20T05:26:13;11.50;;;2.33;;
13943;SDS011;7044;53.286;8.534;2023-12-20T05:28:40;17.77;;;3.10;;
13943;SDS011;7044;53.286;8.534;2023-12-20T05:31:08;12.50;;;1.97;;
13943;SDS011;7044;53.286;8.534;2023-12-20T05:33:35;12.47;;;2.33;;
13943;SDS011;7044;53.286;8.534;2023-12-20T05:36:02;10.43;;;2.20;;
13943;SDS011;7044;53.286;8.534;2023-12-20T05:38:29;10.20;;;1.90;;
13943;SDS011;7044;53.286;8.534;2023-12-20T05:40:56;7.90;;;2.27;;
13943;SDS011;7044;53.286;8.534;2023-12-20T05:43:23;8.87;;;2.27;;
13943;SDS011;7044;53.286;8.534;2023-12-20T05:45:50;18.40;;;2.20;;
13943;SDS011;7044;53.286;8.534;2023-12-20T05:48:18;6.93;;;1.63;;
13943;SDS011;7044;53.286;8.534;2023-12-20T05:50:45;8.87;;;2.20;;
13943;SDS011;7044;53.286;8.534;2023-12-20T05:53:12;6.10;;;1.57;;
13943;SDS011;7044;53.286;8.534;2023-12-20T05:55:38;17.40;;;1.90;;
13943;SDS011;7044;53.286;8.534;2023-12-20T05:58:05;11.83;;;2.43;;
13943;SDS011;7044;53.286;8.534;2023-12-20T06:00:32;12.90;;;2.70;;
13943;SDS011;7044;53.286;8.534;2023-12-20T06:03:00;9.23;;;2.27;;
13943;SDS011;7044;53.286;8.534;2023-12-20T06:05:28;11.97;;;2.03;;
13943;SDS011;7044;53.286;8.534;2023-12-20T06:07:55;11.00;;;2.07;;
13943;SDS011;7044;53.286;8.534;2023-12-20T06:10:26;12.30;;;2.40;;
13943;SDS011;7044;53.286;8.534;2023-12-20T06:12:53;18.73;;;2.50;;
13943;SDS011;7044;53.286;8.534;2023-12-20T06:15:21;8.83;;;2.20;;
13943;SDS011;7044;53.286;8.534;2023-12-20T06:17:48;13.33;;;2.57;;
13943;SDS011;7044;53.286;8.534;2023-12-20T06:20:15;11.27;;;2.47;;
13943;SDS011;7044;53.286;8.534;2023-12-20T06:22:43;13.50;;;2.30;;
13943;SDS011;7044;53.286;8.534;2023-12-20T06:25:10;14.03;;;2.33;;
13943;SDS011;7044;53.286;8.534;2023-12-20T06:27:37;15.27;;;3.03;;
13943;SDS011;7044;53.286;8.534;2023-12-20T06:30:04;13.63;;;2.37;;
13943;SDS011;7044;53.286;8.534;2023-12-20T06:32:31;17.10;;;2.83;;
13943;SDS011;7044;53.286;8.534;2023-12-20T06:34:59;14.00;;;2.30;;
13943;SDS011;7044;53.286;8.534;2023-12-20T06:37:26;12.17;;;2.80;;
13943;SDS011;7044;53.286;8.534;2023-12-20T06:39:54;16.07;;;2.53;;
13943;SDS011;7044;53.286;8.534;2023-12-20T06:42:21;17.90;;;3.10;;
13943;SDS011;7044;53.286;8.534;2023-12-20T06:44:48;14.23;;;2.93;;
13943;SDS011;7044;53.286;8.534;2023-12-20T06:47:15;19.87;;;2.30;;
13943;SDS011;7044;53.286;8.534;2023-12-20T06:49:42;11.97;;;3.00;;
13943;SDS011;7044;53.286;8.534;2023-12-20T06:52:10;10.87;;;2.13;;
13943;SDS011;7044;53.286;8.534;2023-12-20T06:54:37;13.90;;;2.67;;
13943;SDS011;7044;53.286;8.534;2023-12-20T06:57:05;19.80;;;3.10;;
13943;SDS011;7044;53.286;8.534;2023-12-20T06:59:32;17.43;;;3.00;;
13943;SDS011;7044;53.286;8.534;2023-12-20T07:01:59;11.87;;;2.37;;
13943;SDS011;7044;53.286;8.534;2023-12-20T07:04:26;8.60;;;2.00;;
13943;SDS011;7044;53.286;8.534;2023-12-20T07:06:52;9.97;;;2.27;;
13943;SDS011;7044;53.286;8.534;2023-12-20T07:09:22;19.87;;;3.23;;
13943;SDS011;7044;53.286;8.534;2023-12-20T07:11:49;11.30;;;2.70;;
13943;SDS011;7044;53.286;8.534;2023-12-20T07:14:17;11.20;;;3.07;;
13943;SDS011;7044;53.286;8.534;2023-12-20T07:16:44;10.47;;;2.47;;
13943;SDS011;7044;53.286;8.534;2023-12-20T07:19:11;14.20;;;2.87;;
13943;SDS011;7044;53.286;8.534;2023-12-20T07:21:38;13.20;;;2.40;;
13943;SDS011;7044;53.286;8.534;2023-12-20T07:24:05;12.53;;;3.30;;
13943;SDS011;7044;53.286;8.534;2023-12-20T07:26:32;8.40;;;2.50;;
13943;SDS011;7044;53.286;8.534;2023-12-20T07:28:59;11.13;;;2.07;;
13943;SDS011;7044;53.286;8.534;2023-12-20T07:31:27;14.10;;;2.33;;
13943;SDS011;7044;53.286;8.534;2023-12-20T07:33:54;12.60;;;2.80;;
13943;SDS011;7044;53.286;8.534;2023-12-20T07:36:20;14.80;;;2.33;;
13943;SDS011;7044;53.286;8.534;2023-12-20T07:38:47;19.77;;;3.13;;
13943;SDS011;7044;53.286;8.534;2023-12-20T07:41:14;16.63;;;2.83;;
13943;SDS011;7044;53.286;8.534;2023-12-20T07:43:42;14.63;;;3.40;;
13943;SDS011;7044;53.286;8.534;2023-12-20T07:46:09;15.97;;;3.43;;
13943;SDS011;7044;53.286;8.534;2023-12-20T07:48:37;9.57;;;3.43;;
13943;SDS011;7044;53.286;8.534;2023-12-20T07:51:04;13.27;;;3.40;;
13943;SDS011;7044;53.286;8.534;2023-12-20T07:53:32;16.20;;;3.43;;
13943;SDS011;7044;53.286;8.534;2023-12-20T07:56:00;15.10;;;3.73;;
13943;SDS011;7044;53.286;8.534;2023-12-20T07:58:26;11.90;;;2.27;;
13943;SDS011;7044;53.286;8.534;2023-12-20T08:00:55;13.37;;;3.37;;
13943;SDS011;7044;53.286;8.534;2023-12-20T08:03:22;13.03;;;2.60;;
13943;SDS011;7044;53.286;8.534;2023-12-20T08:05:50;15.57;;;2.67;;
13943;SDS011;7044;53.286;8.534;2023-12-20T08:08:17;17.67;;;3.20;;
13943;SDS011;7044;53.286;8.534;2023-12-20T08:10:43;11.27;;;2.63;;
13943;SDS011;7044;53.286;8.534;2023-12-20T08:13:10;10.43;;;2.70;;
13943;SDS011;7044;53.286;8.534;2023-12-20T08:15:37;8.50;;;2.53;;
13943;SDS011;7044;53.286;8.534;2023-12-20T08:18:04;17.23;;;2.60;;
13943;SDS011;7044;53.286;8.534;2023-12-20T08:20:31;13.93;;;2.53;;
13943;SDS011;7044;53.286;8.534;2023-12-20T08:22:59;9.73;;;2.47;;
13943;SDS011;7044;53.286;8.534;2023-12-20T08:25:27;11.33;;;2.47;;
13943;SDS011;7044;53.286;8.534;2023-12-20T08:27:53;14.63;;;2.67;;
13943;SDS011;7044;53.286;8.534;2023-12-20T08:30:20;17.73;;;2.67;;
13943;SDS011;7044;53.286;8.534;2023-12-20T08:32:47;15.50;;;2.87;;
13943;SDS011;7044;53.286;8.534;2023-12-20T08:35:14;12.43;;;2.40;;
13943;SDS011;7044;53.286;8.534;2023-12-20T08:37:41;14.37;;;2.77;;
13943;SDS011;7044;53.286;8.534;2023-12-20T08:40:09;8.83;;;2.53;;
13943;SDS011;7044;53.286;8.534;2023-12-20T08:42:36;14.17;;;2.23;;
13943;SDS011;7044;53.286;8.534;2023-12-20T08:45:04;12.17;;;2.07;;
13943;SDS011;7044;53.286;8.534;2023-12-20T08:47:31;13.83;;;2.47;;
13943;SDS011;7044;53.286;8.534;2023-12-20T08:49:58;9.23;;;2.63;;
13943;SDS011;7044;53.286;8.534;2023-12-20T08:52:26;21.97;;;3.50;;
13943;SDS011;7044;53.286;8.534;2023-12-20T08:54:54;15.80;;;2.77;;
13943;SDS011;7044;53.286;8.534;2023-12-20T08:57:22;13.07;;;3.50;;
13943;SDS011;7044;53.286;8.534;2023-12-20T08:59:50;16.63;;;2.87;;
13943;SDS011;7044;53.286;8.534;2023-12-20T09:02:17;11.23;;;3.10;;
13943;SDS011;7044;53.286;8.534;2023-12-20T09:04:44;15.23;;;2.83;;
13943;SDS011;7044;53.286;8.534;2023-12-20T09:07:20;32.17;;;2.97;;
13943;SDS011;7044;53.286;8.534;2023-12-20T09:09:48;8.17;;;1.20;;
13943;SDS011;7044;53.286;8.534;2023-12-20T09:12:15;3.03;;;1.00;;
13943;SDS011;7044;53.286;8.534;2023-12-20T09:14:44;2.57;;;0.80;;
13943;SDS011;7044;53.286;8.534;2023-12-20T09:17:11;1.63;;;0.57;;
13943;SDS011;7044;53.286;8.534;2023-12-20T09:19:38;4.63;;;1.07;;
13943;SDS011;7044;53.286;8.534;2023-12-20T09:22:05;1.63;;;0.77;;
13943;SDS011;7044;53.286;8.534;2023-12-20T09:24:32;4.40;;;1.43;;
13943;SDS011;7044;53.286;8.534;2023-12-20T09:26:59;3.80;;;0.87;;
13943;SDS011;7044;53.286;8.534;2023-12-20T09:29:26;2.73;;;1.00;;
13943;SDS011;7044;53.286;8.534;2023-12-20T09:31:54;4.10;;;1.20;;
13943;SDS011;7044;53.286;8.534;2023-12-20T09:34:22;4.87;;;1.27;;
13943;SDS011;7044;53.286;8.534;2023-12-20T09:36:50;5.43;;;1.37;;
13943;SDS011;7044;53.286;8.534;2023-12-20T09:39:18;2.13;;;0.80;;
13943;SDS011;7044;53.286;8.534;2023-12-20T09:41:45;3.73;;;0.60;;
13943;SDS011;7044;53.286;8.534;2023-12-20T09:44:22;4.43;;;1.47;;
13943;SDS011;7044;53.286;8.534;2023-12-20T09:46:49;12.03;;;1.60;;
13943;SDS011;7044;53.286;8.534;2023-12-20T09:49:18;3.43;;;1.03;;
13943;SDS011;7044;53.286;8.534;2023-12-20T09:51:45;3.70;;;0.73;;
13943;SDS011;7044;53.286;8.534;2023-12-20T09:54:14;6.27;;;1.20;;
13943;SDS011;7044;53.286;8.534;2023-12-20T09:56:41;4.43;;;1.00;;
13943;SDS011;7044;53.286;8.534;2023-12-20T09:59:08;4.07;;;0.93;;
13943;SDS011;7044;53.286;8.534;2023-12-20T10:01:35;5.83;;;0.83;;
13943;SDS011;7044;53.286;8.534;2023-12-20T10:04:05;4.47;;;0.97;;
13943;SDS011;7044;53.286;8.534;2023-12-20T10:06:35;4.27;;;0.73;;
13943;SDS011;7044;53.286;8.534;2023-12-20T10:09:02;4.13;;;1.17;;
13943;SDS011;7044;53.286;8.534;2023-12-20T10:11:30;2.87;;;0.97;;
13943;SDS011;7044;53.286;8.534;2023-12-20T10:13:58;2.53;;;0.70;;
13943;SDS011;7044;53.286;8.534;2023-12-20T10:16:26;4.37;;;0.77;;
13943;SDS011;7044;53.286;8.534;2023-12-20T10:18:53;7.83;;;1.03;;
13943;SDS011;7044;53.286;8.534;2023-12-20T10:21:20;4.77;;;1.27;;
13943;SDS011;7044;53.286;8.534;2023-12-20T10:23:49;6.07;;;0.90;;
13943;SDS011;7044;53.286;8.534;2023-12-20T10:26:19;6.83;;;1.07;;
13943;SDS011;7044;53.286;8.534;2023-12-20T10:28:46;3.70;;;1.30;;
13943;SDS011;7044;53.286;8.534;2023-12-20T10:31:26;4.10;;;1.17;;
13943;SDS011;7044;53.286;8.534;2023-12-20T10:33:55;6.27;;;1.03;;
13943;SDS011;7044;53.286;8.534;2023-12-20T10:36:22;2.43;;;0.60;;
13943;SDS011;7044;53.286;8.534;2023-12-20T10:38:53;4.70;;;1.47;;
13943;SDS011;7044;53.286;8.534;2023-12-20T10:41:23;3.40;;;1.20;;
13943;SDS011;7044;53.286;8.534;2023-12-20T10:43:52;4.10;;;1.20;;
13943;SDS011;7044;53.286;8.534;2023-12-20T10:46:21;8.57;;;1.20;;
13943;SDS011;7044;53.286;8.534;2023-12-20T10:48:48;3.53;;;0.80;;
13943;SDS011;7044;53.286;8.534;2023-12-20T10:51:18;5.27;;;0.90;;
13943;SDS011;7044;53.286;8.534;2023-12-20T10:53:46;6.90;;;1.23;;
13943;SDS011;7044;53.286;8.534;2023-12-20T10:56:15;8.70;;;1.00;;
13943;SDS011;7044;53.286;8.534;2023-12-20T10:58:43;8.90;;;1.20;;
13943;SDS011;7044;53.286;8.534;2023-12-20T11:01:11;5.37;;;1.00;;
13943;SDS011;7044;53.286;8.534;2023-12-20T11:03:41;6.27;;;1.00;;
13943;SDS011;7044;53.286;8.534;2023-12-20T11:06:14;10.37;;;0.97;;
13943;SDS011;7044;53.286;8.534;2023-12-20T11:08:51;9.60;;;1.50;;
13943;SDS011;7044;53.286;8.534;2023-12-20T11:11:35;12.80;;;1.30;;
13943;SDS011;7044;53.286;8.534;2023-12-20T11:14:11;2.53;;;1.00;;
13943;SDS011;7044;53.286;8.534;2023-12-20T11:16:43;4.53;;;1.23;;
13943;SDS011;7044;53.286;8.534;2023-12-20T11:19:11;9.67;;;1.10;;
13943;SDS011;7044;53.286;8.534;2023-12-20T11:21:39;16.80;;;1.83;;
13943;SDS011;7044;53.286;8.534;2023-12-20T11:24:07;4.40;;;1.07;;
13943;SDS011;7044;53.286;8.534;2023-12-20T11:26:34;3.77;;;0.80;;
13943;SDS011;7044;53.286;8.534;2023-12-20T11:31:56;7.63;;;1.10;;
13943;SDS011;7044;53.286;8.534;2023-12-20T11:34:26;6.37;;;1.20;;
13943;SDS011;7044;53.286;8.534;2023-12-20T11:36:58;11.47;;;1.60;;
13943;SDS011;7044;53.286;8.534;2023-12-20T11:39:26;8.87;;;1.47;;
13943;SDS011;7044;53.286;8.534;2023-12-20T11:41:56;6.67;;;1.67;;
13943;SDS011;7044;53.286;8.534;2023-12-20T11:44:25;6.40;;;1.50;;
13943;SDS011;7044;53.286;8.534;2023-12-20T11:46:52;6.63;;;0.80;;
13943;SDS011;7044;53.286;8.534;2023-12-20T11:49:22;10.40;;;1.73;;
13943;SDS011;7044;53.286;8.534;2023-12-20T11:51:50;10.47;;;1.70;;
13943;SDS011;7044;53.286;8.534;2023-12-20T11:54:18;9.37;;;1.63;;
13943;SDS011;7044;53.286;8.534;2023-12-20T11:56:45;4.37;;;1.37;;
13943;SDS011;7044;53.286;8.534;2023-12-20T11:59:14;11.33;;;1.60;;
13943;SDS011;7044;53.286;8.534;2023-12-20T12:01:47;7.20;;;1.33;;
13943;SDS011;7044;53.286;8.534;2023-12-20T12:04:15;12.83;;;2.37;;
13943;SDS011;7044;53.286;8.534;2023-12-20T12:06:42;11.70;;;2.10;;
13943;SDS011;7044;53.286;8.534;2023-12-20T12:09:09;12.53;;;1.40;;
13943;SDS011;7044;53.286;8.534;2023-12-20T12:11:36;9.90;;;1.83;;
13943;SDS011;7044;53.286;8.534;2023-12-20T12:14:03;5.07;;;0.97;;
13943;SDS011;7044;53.286;8.534;2023-12-20T12:16:32;2.80;;;0.90;;
13943;SDS011;7044;53.286;8.534;2023-12-20T12:18:59;5.27;;;1.17;;
13943;SDS011;7044;53.286;8.534;2023-12-20T12:21:26;5.70;;;1.17;;
13943;SDS011;7044;53.286;8.534;2023-12-20T12:23:53;8.10;;;1.37;;
13943;SDS011;7044;53.286;8.534;2023-12-20T12:26:20;6.17;;;1.17;;
13943;SDS011;7044;53.286;8.534;2023-12-20T12:28:47;7.40;;;1.27;;
13943;SDS011;7044;53.286;8.534;2023-12-20T12:31:14;10.50;;;1.83;;
13943;SDS011;7044;53.286;8.534;2023-12-20T12:33:43;6.13;;;1.27;;
13943;SDS011;7044;53.286;8.534;2023-12-20T12:36:10;9.40;;;1.60;;
13943;SDS011;7044;53.286;8.534;2023-12-20T12:38:41;12.83;;;1.90;;
13943;SDS011;7044;53.286;8.534;2023-12-20T12:41:08;4.00;;;1.77;;
13943;SDS011;7044;53.286;8.534;2023-12-20T12:43:35;7.07;;;1.40;;
13943;SDS011;7044;53.286;8.534;2023-12-20T12:46:02;11.93;;;2.53;;
13943;SDS011;7044;53.286;8.534;2023-12-20T12:48:29;12.27;;;2.10;;
13943;SDS011;7044;53.286;8.534;2023-12-20T12:50:58;8.60;;;2.20;;
13943;SDS011;7044;53.286;8.534;2023-12-20T12:53:27;7.47;;;2.23;;
13943;SDS011;7044;53.286;8.534;2023-12-20T12:55:54;8.03;;;1.83;;
13943;SDS011;7044;53.286;8.534;2023-12-20T12:58:21;10.83;;;2.07;;
13943;SDS011;7044;53.286;8.534;2023-12-20T13:00:50;9.73;;;1.50;;
13943;SDS011;7044;53.286;8.534;2023-12-20T13:03:17;11.60;;;2.47;;
13943;SDS011;7044;53.286;8.534;2023-12-20T13:05:44;13.67;;;1.90;;
13943;SDS011;7044;53.286;8.534;2023-12-20T13:08:13;14.40;;;2.10;;
13943;SDS011;7044;53.286;8.534;2023-12-20T13:10:40;11.53;;;2.13;;
13943;SDS011;7044;53.286;8.534;2023-12-20T13:13:07;13.43;;;2.30;;
13943;SDS011;7044;53.286;8.534;2023-12-20T13:15:34;10.17;;;2.20;;
13943;SDS011;7044;53.286;8.534;2023-12-20T13:18:01;11.07;;;1.60;;
13943;SDS011;7044;53.286;8.534;2023-12-20T13:20:29;8.13;;;2.00;;
13943;SDS011;7044;53.286;8.534;2023-12-20T13:22:56;7.70;;;1.43;;
13943;SDS011;7044;53.286;8.534;2023-12-20T13:25:25;19.67;;;2.60;;
13943;SDS011;7044;53.286;8.534;2023-12-20T13:27:52;14.27;;;2.27;;
13943;SDS011;7044;53.286;8.534;2023-12-20T13:30:19;10.47;;;2.20;;
13943;SDS011;7044;53.286;8.534;2023-12-20T13:32:46;7.87;;;1.80;;
13943;SDS011;7044;53.286;8.534;2023-12-20T13:35:14;15.50;;;2.90;;
13943;SDS011;7044;53.286;8.534;2023-12-20T13:37:41;10.27;;;2.17;;
13943;SDS011;7044;53.286;8.534;2023-12-20T13:40:09;12.00;;;1.87;;
13943;SDS011;7044;53.286;8.534;2023-12-20T13:42:39;22.47;;;2.77;;
13943;SDS011;7044;53.286;8.534;2023-12-20T13:45:06;10.30;;;1.97;;
13943;SDS011;7044;53.286;8.534;2023-12-20T13:47:34;16.03;;;2.00;;
13943;SDS011;7044;53.286;8.534;2023-12-20T13:50:02;11.80;;;2.17;;
13943;SDS011;7044;53.286;8.534;2023-12-20T13:52:30;9.53;;;2.00;;
13943;SDS011;7044;53.286;8.534;2023-12-20T13:54:57;15.43;;;2.07;;
13943;SDS011;7044;53.286;8.534;2023-12-20T13:57:24;19.00;;;2.70;;
13943;SDS011;7044;53.286;8.534;2023-12-20T13:59:52;12.93;;;2.70;;
13943;SDS011;7044;53.286;8.534;2023-12-20T14:02:19;13.07;;;2.47;;
13943;SDS011;7044;53.286;8.534;2023-12-20T14:04:46;7.20;;;2.20;;
13943;SDS011;7044;53.286;8.534;2023-12-20T14:07:13;10.50;;;1.93;;
13943;SDS011;7044;53.286;8.534;2023-12-20T14:09:40;11.40;;;2.20;;
13943;SDS011;7044;53.286;8.534;2023-12-20T14:12:10;9.10;;;2.40;;
13943;SDS011;7044;53.286;8.534;2023-12-20T14:14:37;15.97;;;2.40;;
13943;SDS011;7044;53.286;8.534;2023-12-20T14:17:05;12.13;;;1.83;;
13943;SDS011;7044;53.286;8.534;2023-12-20T14:19:32;9.67;;;2.57;;
13943;SDS011;7044;53.286;8.534;2023-12-20T14:21:59;14.70;;;2.40;;
13943;SDS011;7044;53.286;8.534;2023-12-20T14:24:27;19.70;;;2.83;;
13943;SDS011;7044;53.286;8.534;2023-12-20T14:26:54;13.00;;;2.27;;
13943;SDS011;7044;53.286;8.534;2023-12-20T14:29:21;19.17;;;2.50;;
13943;SDS011;7044;53.286;8.534;2023-12-20T14:31:48;12.33;;;2.63;;
13943;SDS011;7044;53.286;8.534;2023-12-20T14:34:17;8.07;;;1.80;;
13943;SDS011;7044;53.286;8.534;2023-12-20T14:36:44;5.43;;;2.10;;
13943;SDS011;7044;53.286;8.534;2023-12-20T14:39:11;12.83;;;1.97;;
13943;SDS011;7044;53.286;8.534;2023-12-20T14:41:38;8.07;;;2.43;;
13943;SDS011;7044;53.286;8.534;2023-12-20T14:44:05;9.10;;;2.53;;
13943;SDS011;7044;53.286;8.534;2023-12-20T14:46:32;9.60;;;2.17;;
13943;SDS011;7044;53.286;8.534;2023-12-20T14:48:58;10.47;;;2.13;;
13943;SDS011;7044;53.286;8.534;2023-12-20T14:51:28;7.47;;;2.13;;
13943;SDS011;7044;53.286;8.534;2023-12-20T14:53:55;14.23;;;2.87;;
13943;SDS011;7044;53.286;8.534;2023-12-20T14:56:22;11.23;;;1.97;;
13943;SDS011;7044;53.286;8.534;2023-12-20T14:58:51;18.73;;;2.10;;
13943;SDS011;7044;53.286;8.534;2023-12-20T15:01:17;7.10;;;2.30;;